Time;durP1;ratioP1;P1;durP2;ratioP2;P2;SDS_P1;SDS_P2;PMS_P1;PMS_P2;Temp;Humidity;BMP_temperature;BMP_pressure;BME280_temperature;BME280_humidity;BME280_pressure;Samples;Min_cycle;Max_cycle;Signal;HPM_P1;HPM_P2
2021/03/11 00:01:46;;;;;;;13.27;7.33;;;;;;;3.28;100.00;101406.31;5089388;28;20163;-72
2021/03/11 00:04:12;;;;;;;11.13;7.20;;;;;;;3.29;100.00;101396.78;5090994;28;20163;-72
2021/03/11 00:06:37;;;;;;;15.00;7.60;;;;;;;3.31;100.00;101397.59;5090928;28;20168;-72
2021/03/11 00:09:03;;;;;;;12.10;8.50;;;;;;;3.24;100.00;101385.66;5088576;28;20167;-75
2021/03/11 00:11:28;;;;;;;10.70;7.37;;;;;;;3.23;100.00;101387.41;5084914;28;20180;-74
2021/03/11 00:13:54;;;;;;;14.53;8.60;;;;;;;3.28;100.00;101388.16;5086573;28;20160;-75
2021/03/11 00:16:19;;;;;;;12.70;7.80;;;;;;;3.25;100.00;101387.38;5091067;28;20654;-72
2021/03/11 00:18:45;;;;;;;14.37;8.30;;;;;;;3.25;100.00;101376.97;5088909;28;20399;-76
2021/03/11 00:21:10;;;;;;;12.90;8.40;;;;;;;3.23;100.00;101378.78;5088341;28;20580;-77
2021/03/11 00:23:36;;;;;;;10.17;6.60;;;;;;;3.27;100.00;101386.44;5087174;28;20187;-72
2021/03/11 00:26:02;;;;;;;7.83;6.17;;;;;;;3.31;100.00;101389.81;5083555;28;20203;-73
2021/03/11 00:28:27;;;;;;;11.20;8.30;;;;;;;3.20;100.00;101389.25;5088727;28;20167;-70
2021/03/11 00:30:53;;;;;;;11.27;8.20;;;;;;;3.19;100.00;101384.94;5085252;28;20168;-71
2021/03/11 00:33:18;;;;;;;11.67;8.70;;;;;;;3.16;100.00;101385.00;5088964;28;20168;-73
2021/03/11 00:35:44;;;;;;;11.40;9.00;;;;;;;3.15;100.00;101380.72;5086508;28;20155;-73
2021/03/11 00:38:09;;;;;;;9.90;8.30;;;;;;;3.20;100.00;101384.91;5089695;28;20166;-73
2021/03/11 00:40:35;;;;;;;11.13;8.10;;;;;;;3.18;100.00;101391.03;5086525;28;20184;-70
2021/03/11 00:43:01;;;;;;;13.23;8.40;;;;;;;3.19;100.00;101383.22;5090044;28;20160;-72
2021/03/11 00:45:27;;;;;;;15.33;8.30;;;;;;;3.16;100.00;101390.19;5085259;28;20437;-73
2021/03/11 00:47:52;;;;;;;11.43;8.33;;;;;;;3.09;100.00;101384.31;5085691;28;20919;-71
2021/03/11 00:50:20;;;;;;;11.33;8.27;;;;;;;3.12;100.00;101379.06;5086865;28;20627;-72
2021/03/11 00:52:47;;;;;;;10.10;7.97;;;;;;;3.13;100.00;101377.31;5071278;28;20172;-72
2021/03/11 00:55:13;;;;;;;10.50;8.00;;;;;;;3.12;100.00;101379.06;5086079;28;20453;-71
2021/03/11 00:57:39;;;;;;;10.37;7.20;;;;;;;3.08;100.00;101376.56;5071366;28;20943;-73
2021/03/11 01:00:08;;;;;;;10.97;8.33;;;;;;;3.06;100.00;101380.06;5087798;28;21091;-70
2021/03/11 01:02:34;;;;;;;11.70;7.80;;;;;;;3.12;100.00;101370.41;5087080;28;20437;-71
2021/03/11 01:04:59;;;;;;;12.20;8.20;;;;;;;3.10;100.00;101379.97;5089860;28;20436;-69
2021/03/11 01:07:25;;;;;;;12.27;8.77;;;;;;;3.14;100.00;101377.25;5088145;28;20180;-71
2021/03/11 01:09:53;;;;;;;9.73;6.80;;;;;;;3.10;100.00;101377.38;5084204;28;20317;-70
2021/03/11 01:12:19;;;;;;;14.00;8.07;;;;;;;3.09;100.00;101373.94;5090039;28;20581;-70
2021/03/11 01:14:44;;;;;;;12.90;7.60;;;;;;;3.10;100.00;101373.06;5093846;28;20945;-69
2021/03/11 01:17:10;;;;;;;12.77;9.43;;;;;;;3.12;100.00;101373.88;5094230;28;20208;-76
2021/03/11 01:19:37;;;;;;;11.67;8.40;;;;;;;3.15;100.00;101378.13;5093940;28;20198;-74
2021/03/11 01:22:03;;;;;;;11.80;8.60;;;;;;;3.13;100.00;101367.78;5091446;28;20430;-73
2021/03/11 01:24:30;;;;;;;11.50;8.30;;;;;;;3.14;100.00;101381.59;5091544;28;20424;-71
2021/03/11 01:26:56;;;;;;;11.30;7.20;;;;;;;3.17;100.00;101369.38;5094469;28;20622;-71
2021/03/11 01:29:22;;;;;;;9.33;6.90;;;;;;;3.13;100.00;101365.19;5088621;28;20426;-70
2021/03/11 01:31:47;;;;;;;9.40;7.27;;;;;;;3.11;100.00;101376.50;5087935;28;21004;-71
2021/03/11 01:34:13;;;;;;;13.63;7.87;;;;;;;3.16;100.00;101385.84;5088732;28;20163;-73
2021/03/11 01:36:38;;;;;;;10.73;7.50;;;;;;;3.23;100.00;101382.22;5094082;28;20164;-71
2021/03/11 01:39:04;;;;;;;11.40;7.63;;;;;;;3.31;100.00;101376.81;5091915;28;20176;-75
2021/03/11 01:41:30;;;;;;;11.63;7.87;;;;;;;3.27;100.00;101377.81;5091097;28;20635;-70
2021/03/11 01:43:56;;;;;;;9.37;6.40;;;;;;;3.32;100.00;101394.09;5092741;28;20406;-74
2021/03/11 01:46:24;;;;;;;8.20;6.30;;;;;;;3.33;100.00;101396.69;5093513;28;20259;-71
2021/03/11 01:48:49;;;;;;;10.53;6.63;;;;;;;3.33;100.00;101399.28;5085901;28;20498;-72
2021/03/11 01:51:16;;;;;;;7.93;6.03;;;;;;;3.34;100.00;101397.53;5088082;28;20413;-76
2021/03/11 01:53:42;;;;;;;7.63;5.70;;;;;;;3.31;100.00;101400.19;5091579;28;20405;-75
2021/03/11 01:56:08;;;;;;;8.47;6.37;;;;;;;3.37;100.00;101392.25;5077679;28;20433;-76
2021/03/11 01:58:33;;;;;;;8.43;6.60;;;;;;;3.39;100.00;101402.59;5073994;28;20526;-72
2021/03/11 02:00:59;;;;;;;8.80;6.90;;;;;;;3.31;100.00;101395.00;5076735;28;20409;-72
2021/03/11 02:03:25;;;;;;;8.27;6.73;;;;;;;3.33;100.00;101399.28;5093220;28;20155;-75
2021/03/11 02:05:50;;;;;;;7.90;6.63;;;;;;;3.32;100.00;101379.41;5087314;28;20179;-76
2021/03/11 02:08:16;;;;;;;11.70;7.93;;;;;;;3.23;100.00;101396.94;5077858;28;20164;-72
2021/03/11 02:10:43;;;;;;;13.37;9.90;;;;;;;3.31;100.00;101405.38;5094249;28;20171;-72
2021/03/11 02:13:37;;;;;;;12.83;8.70;;;;;;;3.40;100.00;101399.09;5090187;28;20169;-72
2021/03/11 02:16:09;;;;;;;15.63;11.80;;;;;;;3.32;100.00;101404.50;5046418;28;20453;-75
2021/03/11 02:18:44;;;;;;;11.13;9.10;;;;;;;3.35;100.00;101414.81;5086506;28;20409;-72
2021/03/11 02:21:21;;;;;;;20.20;11.90;;;;;;;3.37;100.00;101404.38;5082147;28;20535;-76
2021/03/11 02:24:12;;;;;;;12.63;9.10;;;;;;;3.31;100.00;101420.97;5074194;28;21003;-72
2021/03/11 02:26:54;;;;;;;14.07;9.27;;;;;;;3.28;100.00;101427.09;5074267;28;20515;-76
2021/03/11 02:29:26;;;;;;;14.00;9.93;;;;;;;3.24;100.00;101428.06;5086933;28;20502;-71
2021/03/11 02:31:56;;;;;;;11.90;8.80;;;;;;;3.27;100.00;101440.13;5090854;28;20430;-73
2021/03/11 02:34:24;;;;;;;14.77;9.70;;;;;;;3.29;100.00;101427.94;5092980;28;20844;-76
2021/03/11 02:36:55;;;;;;;17.17;10.00;;;;;;;3.28;100.00;101428.84;5093737;28;20409;-75
2021/03/11 02:39:24;;;;;;;12.13;9.63;;;;;;;3.20;100.00;101428.19;5091007;28;20445;-75
2021/03/11 02:41:53;;;;;;;11.50;8.13;;;;;;;3.23;100.00;101421.16;5094047;28;20394;-72
2021/03/11 02:44:21;;;;;;;16.30;9.83;;;;;;;3.18;100.00;101419.59;5083276;28;20418;-73
2021/03/11 02:46:48;;;;;;;21.33;10.47;;;;;;;3.09;100.00;101420.66;5086411;28;20410;-75
2021/03/11 02:49:14;;;;;;;16.60;10.80;;;;;;;3.09;100.00;101430.19;5092553;28;20406;-77
2021/03/11 02:51:40;;;;;;;16.50;10.40;;;;;;;3.01;100.00;101436.41;5093883;28;20421;-72
2021/03/11 02:54:06;;;;;;;19.10;10.30;;;;;;;2.99;100.00;101440.78;5079351;28;20441;-76
2021/03/11 02:56:33;;;;;;;13.17;8.63;;;;;;;3.00;100.00;101441.66;5073430;28;20169;-71
2021/03/11 02:58:59;;;;;;;13.47;9.63;;;;;;;3.00;100.00;101447.69;5055305;28;20701;-71
2021/03/11 03:01:26;;;;;;;15.40;9.27;;;;;;;2.95;100.00;101451.31;5081243;28;20411;-75
2021/03/11 03:03:52;;;;;;;15.80;10.30;;;;;;;2.89;100.00;101459.22;5088039;28;20471;-71
2021/03/11 03:06:18;;;;;;;16.50;10.23;;;;;;;2.85;100.00;101458.44;5076653;28;20410;-71
2021/03/11 03:08:45;;;;;;;14.17;10.40;;;;;;;2.82;100.00;101462.84;5084123;28;20206;-71
2021/03/11 03:11:15;;;;;;;15.63;9.47;;;;;;;2.86;100.00;101464.47;5078004;28;20168;-73
2021/03/11 03:13:42;;;;;;;15.03;10.17;;;;;;;2.82;100.00;101471.50;5073096;28;20405;-74
2021/03/11 03:16:09;;;;;;;14.37;9.10;;;;;;;2.74;100.00;101471.66;5088008;28;20492;-72
2021/03/11 03:18:35;;;;;;;16.63;9.97;;;;;;;2.83;100.00;101470.59;5093006;28;20402;-70
2021/03/11 03:21:05;;;;;;;12.20;9.20;;;;;;;2.79;100.00;101474.97;5074800;28;20403;-75
2021/03/11 03:23:31;;;;;;;16.60;9.40;;;;;;;2.79;100.00;101468.94;5077860;28;20437;-75
2021/03/11 03:25:57;;;;;;;13.80;8.57;;;;;;;2.81;100.00;101480.16;5085458;28;20861;-73
2021/03/11 03:28:22;;;;;;;15.50;9.80;;;;;;;2.82;100.00;101494.84;5088265;28;20415;-73
2021/03/11 03:30:48;;;;;;;18.13;10.10;;;;;;;2.85;100.00;101489.56;5074313;28;20238;-74
2021/03/11 03:33:16;;;;;;;17.00;9.87;;;;;;;2.83;100.00;101498.28;5092397;28;20697;-73
2021/03/11 03:35:42;;;;;;;14.30;8.97;;;;;;;2.80;100.00;101496.63;5092536;28;20157;-72
2021/03/11 03:38:08;;;;;;;13.20;8.10;;;;;;;2.75;100.00;101506.25;5087600;28;20413;-72
2021/03/11 03:40:34;;;;;;;16.00;9.20;;;;;;;2.65;100.00;101512.53;5075733;28;20554;-72
2021/03/11 03:43:06;;;;;;;12.83;7.97;;;;;;;2.67;100.00;101508.16;5083707;28;20799;-71
2021/03/11 03:45:37;;;;;;;19.53;6.97;;;;;;;2.59;100.00;101516.09;5073400;28;20402;-71
2021/03/11 03:48:06;;;;;;;11.83;7.90;;;;;;;2.54;100.00;101517.06;5072476;28;20440;-72
2021/03/11 03:50:33;;;;;;;13.00;7.10;;;;;;;2.49;100.00;101523.22;5073319;28;20398;-70
2021/03/11 03:53:03;;;;;;;12.33;7.80;;;;;;;2.50;100.00;101522.34;5082588;28;20460;-75
2021/03/11 03:55:29;;;;;;;15.53;7.57;;;;;;;2.41;100.00;101527.69;5071096;28;20413;-74
2021/03/11 03:57:57;;;;;;;13.97;7.47;;;;;;;2.36;100.00;101528.69;5080430;28;20821;-76
2021/03/11 04:00:23;;;;;;;12.37;6.23;;;;;;;2.42;100.00;101534.59;5087642;28;20998;-73
2021/03/11 04:02:53;;;;;;;5.83;3.90;;;;;;;2.48;100.00;101536.19;5083263;28;20429;-76
2021/03/11 04:05:20;;;;;;;9.07;5.63;;;;;;;2.35;100.00;101552.91;5090612;28;20494;-76
2021/03/11 04:07:46;;;;;;;11.17;6.00;;;;;;;2.36;100.00;101555.47;5090993;28;20406;-77
2021/03/11 04:10:13;;;;;;;7.80;5.50;;;;;;;2.27;100.00;101547.00;5091651;28;20435;-71
2021/03/11 04:12:39;;;;;;;21.80;6.60;;;;;;;2.26;100.00;101559.09;5092205;28;20406;-72
2021/03/11 04:15:06;;;;;;;7.90;4.27;;;;;;;2.31;100.00;101557.28;5090424;28;20421;-74
2021/03/11 04:17:33;;;;;;;8.13;4.50;;;;;;;2.27;100.00;101563.44;5091784;28;20410;-71
2021/03/11 04:20:02;;;;;;;9.50;5.17;;;;;;;2.26;100.00;101566.88;5091820;28;20450;-71
2021/03/11 04:22:29;;;;;;;11.10;5.13;;;;;;;2.21;100.00;101571.31;5080444;28;20438;-71
2021/03/11 04:24:55;;;;;;;12.07;5.60;;;;;;;2.17;100.00;101577.44;5073129;28;20835;-74
2021/03/11 04:27:21;;;;;;;14.83;4.87;;;;;;;2.20;100.00;101572.19;5073183;28;20426;-73
2021/03/11 04:29:48;;;;;;;7.53;4.40;;;;;;;2.12;100.00;101572.34;5090533;28;20428;-73
2021/03/11 04:32:14;;;;;;;10.60;4.90;;;;;;;2.16;100.00;101578.31;5087393;28;20414;-71
2021/03/11 04:34:39;;;;;;;12.53;5.07;;;;;;;2.10;100.00;101575.81;5071311;28;20410;-73
2021/03/11 04:37:05;;;;;;;9.50;4.97;;;;;;;2.06;100.00;101582.81;5071671;28;20179;-73
2021/03/11 04:39:31;;;;;;;10.27;4.77;;;;;;;2.07;100.00;101581.94;5076295;28;20179;-76
2021/03/11 04:41:57;;;;;;;14.00;5.10;;;;;;;2.08;100.00;101582.78;5089615;28;20402;-72
2021/03/11 04:44:25;;;;;;;8.10;5.20;;;;;;;2.20;100.00;101560.09;5090521;28;20427;-71
2021/03/11 04:46:52;;;;;;;7.30;4.30;;;;;;;2.19;100.00;101586.03;5072814;28;20443;-72
2021/03/11 04:49:18;;;;;;;7.10;3.53;;;;;;;2.10;100.00;101596.56;5085710;28;20455;-74
2021/03/11 04:51:44;;;;;;;5.83;4.00;;;;;;;2.12;100.00;101592.22;5091641;28;20401;-73
2021/03/11 04:54:12;;;;;;;12.20;5.17;;;;;;;2.14;100.00;101593.03;5091507;28;20770;-72
2021/03/11 04:56:37;;;;;;;7.13;3.13;;;;;;;2.15;100.00;101600.78;5091680;28;20470;-69
2021/03/11 04:59:03;;;;;;;10.67;3.73;;;;;;;2.16;100.00;101614.59;5075941;28;20438;-70
2021/03/11 05:01:33;;;;;;;7.10;3.77;;;;;;;2.21;100.00;101617.97;5077801;28;20622;-73
2021/03/11 05:04:02;;;;;;;7.73;3.60;;;;;;;2.33;100.00;101615.13;5070863;28;20187;-71
2021/03/11 05:06:27;;;;;;;6.57;4.40;;;;;;;2.20;100.00;101614.53;5078780;28;20414;-72
2021/03/11 05:08:53;;;;;;;7.43;3.80;;;;;;;2.17;100.00;101627.53;5083973;28;20524;-72
2021/03/11 05:11:18;;;;;;;9.10;5.10;;;;;;;2.23;100.00;101624.81;5085750;28;20241;-73
2021/03/11 05:13:44;;;;;;;9.20;3.90;;;;;;;2.22;100.00;101636.09;5086341;28;20152;-72
2021/03/11 05:16:09;;;;;;;7.67;4.03;;;;;;;2.31;100.00;101631.63;5075586;28;20168;-71
2021/03/11 05:18:35;;;;;;;7.80;3.17;;;;;;;2.28;100.00;101623.91;5071037;28;20160;-72
2021/03/11 05:21:01;;;;;;;11.83;5.27;;;;;;;2.32;100.00;101633.31;5085110;28;20211;-71
2021/03/11 05:23:27;;;;;;;7.30;4.40;;;;;;;2.34;100.00;101637.59;5091542;28;20831;-72
2021/03/11 05:25:53;;;;;;;7.50;4.83;;;;;;;2.33;100.00;101637.63;5088817;28;20457;-73
2021/03/11 05:28:22;;;;;;;6.80;3.80;;;;;;;2.50;100.00;101639.03;5089635;28;20167;-73
2021/03/11 05:30:48;;;;;;;13.83;5.20;;;;;;;2.49;100.00;101642.53;5091427;28;20471;-71
2021/03/11 05:33:14;;;;;;;9.47;4.37;;;;;;;2.54;100.00;101644.16;5090917;28;20974;-72
2021/03/11 05:35:40;;;;;;;9.97;4.70;;;;;;;2.60;100.00;101651.81;5083244;28;20310;-72
2021/03/11 05:38:06;;;;;;;17.13;4.50;;;;;;;2.83;100.00;101649.63;5071218;28;20413;-78
2021/03/11 05:40:32;;;;;;;11.03;4.50;;;;;;;2.80;100.00;101649.72;5070900;28;20450;-74
2021/03/11 05:42:59;;;;;;;5.07;3.00;;;;;;;2.89;100.00;101657.31;5070762;28;20191;-70
2021/03/11 05:45:25;;;;;;;6.33;4.30;;;;;;;2.88;100.00;101659.94;5070190;28;20248;-76
2021/03/11 05:47:52;;;;;;;16.57;5.27;;;;;;;2.88;100.00;101660.78;5082270;28;20995;-71
2021/03/11 05:50:17;;;;;;;7.83;4.50;;;;;;;2.97;100.00;101670.97;5090690;28;20437;-74
2021/03/11 05:52:44;;;;;;;9.50;4.80;;;;;;;3.02;100.00;101671.75;5089889;28;20425;-73
2021/03/11 05:55:09;;;;;;;9.07;4.77;;;;;;;3.11;100.00;101672.44;5077815;28;20182;-71
2021/03/11 05:57:41;;;;;;;7.47;4.00;;;;;;;3.18;100.00;101682.66;5080001;28;20792;-76
2021/03/11 06:00:12;;;;;;;9.80;4.80;;;;;;;3.15;100.00;101694.84;5075517;28;20196;-76
2021/03/11 06:02:39;;;;;;;9.20;4.60;;;;;;;3.28;100.00;101686.75;5093380;28;20417;-71
2021/03/11 06:05:05;;;;;;;10.33;4.40;;;;;;;3.29;100.00;101700.59;5090233;28;20394;-76
2021/03/11 06:07:31;;;;;;;6.17;3.87;;;;;;;3.30;100.00;101694.50;5093505;28;20398;-72
2021/03/11 06:10:04;;;;;;;6.67;4.53;;;;;;;3.32;100.00;101698.81;5089350;28;20425;-77
2021/03/11 06:12:31;;;;;;;7.73;4.17;;;;;;;3.46;100.00;101708.88;5088329;28;20172;-76
2021/03/11 06:15:17;;;;;;;6.70;4.40;;;;;;;3.42;100.00;101709.00;5085456;28;20406;-75
2021/03/11 06:17:43;;;;;;;10.07;4.80;;;;;;;3.48;100.00;101712.31;5059880;28;20418;-72
2021/03/11 06:20:10;;;;;;;6.93;4.50;;;;;;;3.53;100.00;101718.25;5090001;28;20488;-74
2021/03/11 06:22:36;;;;;;;16.70;4.97;;;;;;;3.53;100.00;101727.78;5094030;28;20440;-72
2021/03/11 06:25:03;;;;;;;7.77;3.93;;;;;;;3.48;100.00;101735.69;5094070;28;20449;-74
2021/03/11 06:27:28;;;;;;;9.10;5.00;;;;;;;3.16;100.00;101738.09;5091727;28;20406;-75
2021/03/11 06:29:56;;;;;;;6.90;4.70;;;;;;;3.13;100.00;101751.13;5078593;28;20931;-75
2021/03/11 06:32:23;;;;;;;10.80;4.57;;;;;;;3.19;100.00;101751.03;5086931;28;20220;-73
2021/03/11 06:34:48;;;;;;;10.20;5.90;;;;;;;3.09;100.00;101765.91;5093466;28;20397;-71
2021/03/11 06:37:15;;;;;;;9.03;5.70;;;;;;;2.99;100.00;101765.22;5092624;28;20390;-73
2021/03/11 06:39:43;;;;;;;9.33;6.07;;;;;;;3.02;100.00;101767.78;5092357;28;20194;-69
2021/03/11 06:42:09;;;;;;;8.03;5.83;;;;;;;3.13;100.00;101775.34;5092416;28;20402;-72
2021/03/11 06:44:45;;;;;;;13.30;7.67;;;;;;;3.21;100.00;101775.19;5092229;28;20771;-71
2021/03/11 06:47:13;;;;;;;12.90;9.03;;;;;;;3.21;100.00;101777.81;5090876;28;20907;-74
2021/03/11 06:49:56;;;;;;;9.83;6.30;;;;;;;3.32;100.00;101781.91;5089136;28;21035;-74
2021/03/11 06:52:21;;;;;;;13.20;7.00;;;;;;;3.45;100.00;101795.50;5087328;28;20504;-74
2021/03/11 06:55:03;;;;;;;8.60;6.97;;;;;;;3.25;100.00;101801.09;5093064;28;20947;-73
2021/03/11 06:57:33;;;;;;;11.23;8.53;;;;;;;3.02;100.00;101809.31;5092354;28;20156;-76
2021/03/11 07:00:00;;;;;;;15.33;7.10;;;;;;;2.97;100.00;101816.31;5092795;28;20461;-73
2021/03/11 07:02:28;;;;;;;9.60;6.50;;;;;;;2.89;100.00;101818.19;5092983;28;20411;-73
2021/03/11 07:04:55;;;;;;;10.10;5.70;;;;;;;2.61;100.00;101815.22;5089289;28;20403;-75
2021/03/11 07:07:22;;;;;;;9.63;7.00;;;;;;;2.60;100.00;101817.81;5072937;28;20795;-77
2021/03/11 07:09:50;;;;;;;11.60;7.17;;;;;;;2.56;100.00;101837.75;5081360;28;20455;-73
2021/03/11 07:12:16;;;;;;;11.87;6.20;;;;;;;2.63;100.00;101833.34;5075011;28;20410;-74
2021/03/11 07:14:42;;;;;;;15.53;7.47;;;;;;;2.66;100.00;101831.56;5092979;28;20410;-74
2021/03/11 07:17:24;;;;;;;19.50;7.90;;;;;;;2.63;100.00;101846.31;5086085;28;20403;-73
2021/03/11 07:20:13;;;;;;;10.33;6.57;;;;;;;2.63;100.00;101838.53;5076566;28;20672;-73
2021/03/11 07:22:39;;;;;;;12.70;6.80;;;;;;;2.69;100.00;101836.69;5084690;28;20437;-73
2021/03/11 07:25:25;;;;;;;13.47;7.90;;;;;;;2.75;100.00;101844.38;5086624;28;20786;-73
2021/03/11 07:27:51;;;;;;;14.40;7.90;;;;;;;2.75;100.00;101840.94;5091582;28;20405;-73
2021/03/11 07:30:17;;;;;;;15.97;7.33;;;;;;;2.94;100.00;101831.94;5091818;28;20417;-72
2021/03/11 07:32:43;;;;;;;13.10;8.13;;;;;;;3.02;100.00;101835.28;5080986;28;21066;-74
2021/03/11 07:35:09;;;;;;;13.27;7.43;;;;;;;2.98;100.00;101843.13;5091175;28;20485;-73
2021/03/11 07:37:42;;;;;;;15.80;8.10;;;;;;;3.13;100.00;101844.59;5091465;28;20164;-73
2021/03/11 07:40:08;;;;;;;11.97;6.17;;;;;;;3.28;100.00;101858.16;5090765;28;20434;-73
2021/03/11 07:42:34;;;;;;;11.83;7.20;;;;;;;3.39;100.00;101860.53;5091129;28;20499;-73
2021/03/11 07:45:00;;;;;;;14.27;7.47;;;;;;;3.67;100.00;101863.47;5090714;28;20874;-74
2021/03/11 07:47:26;;;;;;;16.67;7.50;;;;;;;3.83;100.00;101851.00;5090924;28;20168;-73
2021/03/11 07:49:52;;;;;;;14.60;7.30;;;;;;;3.76;100.00;101865.00;5090093;28;20205;-76
2021/03/11 07:52:18;;;;;;;18.20;7.17;;;;;;;3.81;100.00;101860.59;5089727;28;20498;-73
2021/03/11 07:54:44;;;;;;;12.47;6.67;;;;;;;3.56;100.00;101871.47;5090876;28;20504;-73
2021/03/11 07:57:09;;;;;;;19.63;7.30;;;;;;;3.62;100.00;101867.88;5086674;28;20414;-73
2021/03/11 07:59:35;;;;;;;14.73;6.77;;;;;;;3.72;100.00;101874.63;5085764;28;20429;-72
2021/03/11 08:02:06;;;;;;;12.57;7.40;;;;;;;3.77;100.00;101875.38;5091061;28;20168;-73
2021/03/11 08:04:41;;;;;;;13.90;7.60;;;;;;;3.76;100.00;101885.81;5082438;28;20737;-74
2021/03/11 08:07:24;;;;;;;11.00;7.13;;;;;;;3.71;100.00;101883.31;5091717;28;20833;-74
2021/03/11 08:09:51;;;;;;;15.00;7.70;;;;;;;3.85;100.00;101891.69;5091351;28;20401;-74
2021/03/11 08:12:27;;;;;;;13.67;8.83;;;;;;;3.70;100.00;101897.16;5087627;28;20421;-73
2021/03/11 08:14:53;;;;;;;15.20;6.57;;;;;;;3.69;100.00;101898.06;5089073;28;20774;-72
2021/03/11 08:17:33;;;;;;;11.93;6.77;;;;;;;3.66;100.00;101910.28;5088165;28;20467;-74
2021/03/11 08:20:00;;;;;;;10.77;6.43;;;;;;;3.60;100.00;101898.25;5090084;28;20448;-73
2021/03/11 08:23:04;;;;;;;16.43;8.73;;;;;;;3.79;100.00;101906.56;5083953;28;20430;-74
2021/03/11 08:25:32;;;;;;;19.37;8.30;;;;;;;3.98;100.00;101904.44;4985252;28;20552;-73
2021/03/11 08:28:00;;;;;;;14.20;9.20;;;;;;;4.15;100.00;101912.72;4986238;28;20507;-73
2021/03/11 08:30:46;;;;;;;11.80;7.07;;;;;;;4.12;100.00;101908.44;5040347;28;20812;-73
2021/03/11 08:33:35;;;;;;;13.47;6.80;;;;;;;4.36;100.00;101901.84;5078755;28;20955;-73
2021/03/11 08:36:02;;;;;;;14.20;6.43;;;;;;;4.10;100.00;101906.78;5084245;28;20437;-75
2021/03/11 08:38:30;;;;;;;12.23;7.90;;;;;;;3.88;100.00;101920.22;5069306;28;20414;-74
2021/03/11 08:41:10;;;;;;;14.50;8.97;;;;;;;4.21;100.00;101914.34;5077085;28;20456;-73
2021/03/11 08:43:44;;;;;;;13.93;7.93;;;;;;;4.50;100.00;101916.31;5086536;28;20433;-73
2021/03/11 08:46:15;;;;;;;11.70;7.33;;;;;;;4.74;100.00;101915.75;5073856;28;20410;-75
2021/03/11 08:49:02;;;;;;;15.53;7.97;;;;;;;4.67;100.00;101912.41;5086867;28;20414;-75
2021/03/11 08:51:27;;;;;;;10.70;7.47;;;;;;;4.73;100.00;101920.09;5090245;28;20422;-75
2021/03/11 08:54:01;;;;;;;15.40;7.77;;;;;;;4.68;100.00;101921.94;5072808;28;20490;-75
2021/03/11 08:56:26;;;;;;;13.00;6.53;;;;;;;4.52;100.00;101920.59;5090046;28;20200;-75
2021/03/11 08:59:01;;;;;;;13.47;8.03;;;;;;;4.37;100.00;101915.72;5090330;28;20789;-74
2021/03/11 09:01:41;;;;;;;25.27;9.00;;;;;;;4.68;100.00;101908.91;5090557;28;20699;-75
2021/03/11 09:04:22;;;;;;;14.37;8.23;;;;;;;4.97;100.00;101915.19;5083233;28;20411;-72
2021/03/11 09:07:10;;;;;;;11.83;7.47;;;;;;;4.92;100.00;101919.66;5081072;28;20448;-74
2021/03/11 09:09:51;;;;;;;16.87;7.70;;;;;;;4.92;100.00;101925.72;5090309;28;21072;-79
2021/03/11 09:12:37;;;;;;;13.37;6.90;;;;;;;4.76;100.00;101928.72;5084197;28;20462;-80
2021/03/11 09:15:11;;;;;;;10.73;6.03;;;;;;;4.82;100.00;101936.38;5087652;28;20411;-77
2021/03/11 09:17:39;;;;;;;9.57;6.90;;;;;;;4.73;100.00;101935.72;5085052;28;20421;-79
2021/03/11 09:20:06;;;;;;;15.57;8.47;;;;;;;4.85;100.00;101933.72;5075151;28;20454;-79
2021/03/11 09:22:47;;;;;;;12.20;6.90;;;;;;;4.88;100.00;101931.91;5089235;28;20425;-77
2021/03/11 09:25:22;;;;;;;13.13;7.17;;;;;;;5.05;100.00;101921.06;5069709;28;20469;-75
2021/03/11 09:27:58;;;;;;;10.97;7.17;;;;;;;4.85;100.00;101941.53;5072882;28;20418;-75
2021/03/11 09:30:32;;;;;;;14.60;7.43;;;;;;;5.19;100.00;101938.97;5091339;28;20548;-78
2021/03/11 09:33:14;;;;;;;13.13;7.97;;;;;;;5.57;100.00;101943.19;5076881;28;20487;-76
2021/03/11 09:35:41;;;;;;;13.50;8.37;;;;;;;5.60;100.00;101955.28;5082416;28;20570;-79
2021/03/11 09:38:11;;;;;;;13.53;7.70;;;;;;;5.05;100.00;101954.91;5091015;28;20405;-77
2021/03/11 09:40:39;;;;;;;13.30;8.20;;;;;;;5.49;100.00;101952.94;5094185;28;21089;-80
2021/03/11 09:43:26;;;;;;;13.03;8.00;;;;;;;6.05;100.00;101961.03;5094324;28;20414;-74
2021/03/11 09:45:58;;;;;;;13.33;7.90;;;;;;;5.94;100.00;101953.50;5094484;28;20895;-78
2021/03/11 09:48:27;;;;;;;13.43;6.50;;;;;;;6.38;100.00;101956.59;5094109;28;20434;-79
2021/03/11 09:51:03;;;;;;;24.03;8.50;;;;;;;6.33;100.00;101942.81;5094623;28;20771;-72
2021/03/11 09:53:55;;;;;;;15.37;8.67;;;;;;;6.57;100.00;101951.66;5087128;28;20452;-79
2021/03/11 09:56:28;;;;;;;16.13;7.60;;;;;;;7.08;100.00;101943.09;5080109;28;20426;-78
2021/03/11 09:59:05;;;;;;;14.77;8.47;;;;;;;7.24;100.00;101952.13;5093991;28;20390;-78
2021/03/11 10:01:35;;;;;;;11.30;8.40;;;;;;;6.80;100.00;101961.38;5088633;28;20502;-77
2021/03/11 10:04:11;;;;;;;13.37;8.43;;;;;;;6.56;100.00;101963.84;5082570;28;20575;-79
2021/03/11 10:06:37;;;;;;;17.27;9.30;;;;;;;6.89;100.00;101964.59;5082082;28;20397;-77
2021/03/11 10:09:03;;;;;;;13.67;8.10;;;;;;;8.16;100.00;101959.34;5093453;28;20425;-79
2021/03/11 10:11:41;;;;;;;13.97;8.03;;;;;;;8.63;100.00;101954.13;5093663;28;20779;-74
2021/03/11 10:14:18;;;;;;;14.83;9.37;;;;;;;9.47;100.00;101951.53;5093134;28;20404;-74
2021/03/11 10:16:46;;;;;;;15.27;9.33;;;;;;;9.42;100.00;101956.97;5093160;28;20777;-71
2021/03/11 10:19:19;;;;;;;13.87;8.97;;;;;;;9.28;100.00;101972.44;5082495;28;20457;-72
2021/03/11 10:21:52;;;;;;;17.80;7.90;;;;;;;9.22;100.00;101963.97;5082203;28;20442;-77
2021/03/11 10:24:39;;;;;;;17.40;8.47;;;;;;;9.49;100.00;101961.97;5077221;28;20426;-78
2021/03/11 10:27:16;;;;;;;15.63;8.20;;;;;;;8.79;100.00;101965.72;5093095;28;20398;-74
2021/03/11 10:29:42;;;;;;;13.90;8.90;;;;;;;8.87;100.00;101980.22;5093530;28;20433;-74
2021/03/11 10:32:08;;;;;;;17.10;8.57;;;;;;;9.92;100.00;101963.59;5093803;28;20405;-78
2021/03/11 10:34:50;;;;;;;18.27;8.33;;;;;;;10.81;99.03;101969.13;5093444;28;20459;-79
2021/03/11 10:37:27;;;;;;;13.10;6.60;;;;;;;11.82;84.78;101955.31;5090192;28;20263;-81
2021/03/11 10:39:56;;;;;;;15.87;9.83;;;;;;;10.49;88.76;101961.88;5092978;28;20444;-78
2021/03/11 10:42:22;;;;;;;18.60;9.67;;;;;;;9.74;100.00;101976.56;5092469;28;20406;-79
2021/03/11 10:44:56;;;;;;;21.10;9.80;;;;;;;8.15;100.00;101983.81;5077521;28;20398;-78
2021/03/11 10:47:21;;;;;;;17.60;9.60;;;;;;;10.67;100.00;101976.81;5093279;28;20427;-76
2021/03/11 10:49:47;;;;;;;15.53;8.53;;;;;;;11.85;81.65;101958.63;5081292;28;20891;-78
2021/03/11 10:52:17;;;;;;;14.57;9.57;;;;;;;12.79;80.76;101954.41;5079393;28;20164;-72
2021/03/11 10:54:42;;;;;;;17.27;8.87;;;;;;;13.94;72.83;101953.78;5077371;28;20911;-75
2021/03/11 10:57:19;;;;;;;14.70;7.03;;;;;;;14.38;62.27;101948.38;5072476;28;20434;-80
2021/03/11 11:00:02;;;;;;;11.13;8.43;;;;;;;15.95;61.44;101952.13;5085121;28;20249;-76
2021/03/11 11:02:29;;;;;;;11.97;7.97;;;;;;;15.83;55.79;101943.22;5087114;28;20403;-71
2021/03/11 11:04:58;;;;;;;13.23;8.50;;;;;;;15.47;54.82;101951.84;5091772;28;20390;-71
2021/03/11 11:07:25;;;;;;;12.67;8.70;;;;;;;13.42;62.48;101964.84;5082495;28;20402;-72
2021/03/11 11:09:51;;;;;;;12.07;8.33;;;;;;;14.80;61.42;101959.81;5079471;28;20413;-70
2021/03/11 11:12:18;;;;;;;13.17;8.50;;;;;;;15.99;55.70;101940.34;5077652;28;20414;-74
2021/03/11 11:14:47;;;;;;;14.27;9.50;;;;;;;14.15;58.96;101963.03;5085920;28;20167;-69
2021/03/11 11:17:14;;;;;;;8.43;6.50;;;;;;;12.40;60.97;101968.88;5086374;28;20439;-72
2021/03/11 11:19:41;;;;;;;11.00;7.67;;;;;;;12.02;65.97;101962.19;5092268;28;20449;-74
2021/03/11 11:22:08;;;;;;;10.40;8.07;;;;;;;13.38;64.31;101960.72;5088792;28;20449;-71
2021/03/11 11:24:34;;;;;;;13.93;9.80;;;;;;;12.45;65.69;101968.59;5091271;28;20437;-74
2021/03/11 11:27:00;;;;;;;22.03;9.90;;;;;;;11.19;74.50;101973.44;5095384;28;20727;-76
2021/03/11 11:29:27;;;;;;;11.90;7.70;;;;;;;12.38;63.17;101970.72;5091999;28;20417;-74